Anamoose, North Dakota
Current Conditions -  °F | °C
As of 5:15 AM on Saturday 20 Dec 2014 (Local Time) from K5H4 Reporting Station
Moderate Fog Moderate Fog  
Wind Chill: 16°   Ceiling: 100
Heat Index: 23°   Visibility: 0.5mi
Dew Point: 23°   Wind: 6mph
Humidity: 100%   Direction: 170°S
Pressure: 29.93"   Gusts: NA
Location:  47.88°N, 100.24°W
Report Text: K5H4 201115Z AUTO 17005KT 1/2SM FZFG OVC001 M05/M05 A2993 RMK AO2
Loading
Personal Weather Stations






























Interactive Weather Map New forecast layout! Learn more

10-Day Weather Forecast

Advertisements
Track Severe Weather on mobile